Time;durP1;ratioP1;P1;durP2;ratioP2;P2;SDS_P1;SDS_P2;PMS_P1;PMS_P2;Temp;Humidity;BMP_temperature;BMP_pressure;BME280_temperature;BME280_humidity;BME280_pressure;Samples;Min_cycle;Max_cycle;Signal;HPM_P1;HPM_P2
2022/12/21 00:01:20;;;;;;;9.25;5.22;;;;;;;0.55;72.23;100906.35;1705100;83;21033;-73
2022/12/21 00:03:53;;;;;;;9.00;5.87;;;;;;;0.56;72.24;100919.30;1720729;83;21453;-73
2022/12/21 00:06:20;;;;;;;7.97;5.20;;;;;;;0.57;72.26;100919.70;1721372;83;21047;-74
2022/12/21 00:08:48;;;;;;;7.53;5.20;;;;;;;0.56;72.25;100911.95;1717180;82;21819;-73
2022/12/21 00:11:15;;;;;;;7.90;5.30;;;;;;;0.57;72.26;100909.75;1675447;83;20947;-72
2022/12/21 00:13:42;;;;;;;9.33;5.60;;;;;;;0.56;72.25;100904.16;1720946;83;20999;-72
2022/12/21 00:16:13;;;;;;;9.35;6.42;;;;;;;0.55;72.27;100905.91;1721467;83;20973;-72
2022/12/21 00:18:40;;;;;;;7.72;5.35;;;;;;;0.55;72.26;100908.95;1716557;83;21036;-72
2022/12/21 00:21:16;;;;;;;9.63;5.80;;;;;;;0.57;72.25;100907.16;1715166;82;21893;-72
2022/12/21 00:23:44;;;;;;;8.08;5.45;;;;;;;0.58;72.19;100908.88;1700970;83;21462;-72
2022/12/21 00:26:13;;;;;;;7.70;4.90;;;;;;;0.59;72.13;100906.69;1693991;83;21014;-73
2022/12/21 00:28:39;;;;;;;8.38;5.22;;;;;;;0.59;72.09;100906.69;1717322;82;21383;-73
2022/12/21 00:31:14;;;;;;;7.62;5.15;;;;;;;0.58;72.02;100895.89;1721465;82;21043;-73
2022/12/21 00:33:41;;;;;;;7.37;5.00;;;;;;;0.60;71.97;100902.34;1719732;82;21817;-72
2022/12/21 00:36:11;;;;;;;8.70;5.37;;;;;;;0.59;71.90;100895.44;1722221;83;21003;-72
2022/12/21 00:38:37;;;;;;;7.22;4.92;;;;;;;0.57;71.84;100889.80;1718566;82;21036;-73
2022/12/21 00:41:07;;;;;;;8.38;5.03;;;;;;;0.60;71.75;100889.34;1704359;82;21000;-74
2022/12/21 00:43:35;;;;;;;9.88;5.60;;;;;;;0.61;71.71;100888.44;1708651;82;21039;-74
2022/12/21 00:46:02;;;;;;;9.28;5.60;;;;;;;0.61;71.67;100888.44;1711956;83;22325;-72
2022/12/21 00:55:51;;;;;;;7.53;4.95;;;;;;;0.62;71.51;100881.03;1682270;82;21472;-72
2022/12/21 00:58:18;;;;;;;11.03;5.92;;;;;;;0.62;71.41;100884.94;1682200;84;21587;-78
2022/12/21 01:00:48;;;;;;;9.15;5.62;;;;;;;0.60;71.33;100875.89;1683197;83;22529;-73
2022/12/21 01:03:14;;;;;;;8.85;5.70;;;;;;;0.62;71.28;100873.23;1695953;83;21022;-71
2022/12/21 01:05:48;;;;;;;8.53;5.78;;;;;;;0.63;71.20;100861.94;1713281;83;21417;-71
2022/12/21 01:08:16;;;;;;;8.98;5.72;;;;;;;0.62;71.15;100859.79;1707653;83;20984;-73
2022/12/21 01:10:43;;;;;;;8.40;4.90;;;;;;;0.61;71.13;100851.59;1707542;82;21042;-73
2022/12/21 01:13:13;;;;;;;9.35;5.50;;;;;;;0.62;71.11;100847.24;1710725;82;21968;-72
2022/12/21 01:15:43;;;;;;;7.00;4.80;;;;;;;0.60;71.06;100836.05;1708843;83;21046;-73
2022/12/21 01:18:10;;;;;;;10.15;5.40;;;;;;;0.59;71.08;100836.95;1685445;83;20967;-73
2022/12/21 01:20:49;;;;;;;7.70;4.72;;;;;;;0.57;71.10;100843.02;1699333;83;21407;-73
2022/12/21 01:23:18;;;;;;;8.08;5.67;;;;;;;0.55;71.09;100840.92;1706188;83;20998;-73
2022/12/21 01:25:45;;;;;;;7.92;5.62;;;;;;;0.56;71.14;100844.37;1710061;83;21891;-74
2022/12/21 01:28:13;;;;;;;8.05;5.30;;;;;;;0.55;71.11;100840.07;1711732;82;21434;-73
2022/12/21 01:30:40;;;;;;;6.67;4.85;;;;;;;0.52;71.13;100827.19;1689798;83;21055;-72
2022/12/21 01:33:15;;;;;;;7.75;5.20;;;;;;;0.51;71.17;100833.28;1682463;84;21056;-73
2022/12/21 01:35:43;;;;;;;9.13;5.92;;;;;;;0.49;71.21;100829.44;1690086;83;21062;-74
2022/12/21 01:38:11;;;;;;;7.42;5.25;;;;;;;0.50;71.27;100844.58;1681583;83;21947;-75
2022/12/21 01:40:38;;;;;;;7.83;5.33;;;;;;;0.48;71.35;100830.75;1689107;83;21123;-72
2022/12/21 01:43:22;;;;;;;9.53;5.53;;;;;;;0.45;71.43;100836.91;1690303;84;21011;-72
2022/12/21 01:45:51;;;;;;;9.18;5.75;;;;;;;0.44;71.54;100840.41;1677692;83;21074;-73
2022/12/21 01:48:19;;;;;;;9.05;5.75;;;;;;;0.43;71.63;100837.41;1686568;83;21071;-74
2022/12/21 01:50:56;;;;;;;9.35;5.97;;;;;;;0.44;71.73;100826.56;1687342;83;21858;-74
2022/12/21 01:53:36;;;;;;;8.88;5.80;;;;;;;0.43;71.86;100817.91;1712404;83;21487;-73
2022/12/21 01:56:09;;;;;;;9.33;6.17;;;;;;;0.43;71.95;100818.37;1714214;82;21000;-73
2022/12/21 01:58:35;;;;;;;8.25;5.72;;;;;;;0.41;72.03;100815.81;1700160;82;21448;-72
2022/12/21 02:01:03;;;;;;;9.15;5.95;;;;;;;0.44;72.11;100820.06;1690004;83;21020;-72
2022/12/21 02:03:41;;;;;;;9.30;5.58;;;;;;;0.46;72.18;100815.66;1707278;84;22330;-73
2022/12/21 02:06:12;;;;;;;9.15;6.03;;;;;;;0.45;72.22;100805.72;1680311;84;21733;-73
2022/12/21 02:08:41;;;;;;;8.75;6.03;;;;;;;0.46;72.26;100811.77;1695498;82;21030;-73
2022/12/21 02:11:08;;;;;;;8.65;5.40;;;;;;;0.47;72.31;100805.67;1708283;83;21003;-74
2022/12/21 02:13:34;;;;;;;8.75;5.58;;;;;;;0.46;72.34;100799.62;1695469;83;20956;-73
2022/12/21 02:16:18;;;;;;;7.90;5.50;;;;;;;0.46;72.36;100793.58;1681416;84;23570;-73
2022/12/21 02:19:11;;;;;;;8.13;5.65;;;;;;;0.44;72.36;100783.23;1654622;85;21069;-72
2022/12/21 02:21:51;;;;;;;8.03;5.22;;;;;;;0.45;72.45;100778.44;1661582;86;21359;-73
2022/12/21 02:24:45;;;;;;;11.12;5.72;;;;;;;0.43;72.50;100785.44;1674900;83;21052;-72
2022/12/21 02:27:23;;;;;;;9.55;5.75;;;;;;;0.42;72.51;100784.19;1621213;86;21029;-72
2022/12/21 02:30:19;;;;;;;9.40;5.70;;;;;;;0.42;72.59;100776.39;1654522;85;21858;-72
2022/12/21 02:33:24;;;;;;;8.78;5.78;;;;;;;0.42;72.58;100771.19;1686059;83;21188;-74
2022/12/21 02:36:03;;;;;;;12.35;6.22;;;;;;;0.41;72.58;100764.30;1650104;85;21054;-73
2022/12/21 02:38:53;;;;;;;8.60;5.85;;;;;;;0.42;72.57;100772.49;1662180;83;21020;-73
2022/12/21 02:41:49;;;;;;;9.65;5.95;;;;;;;0.41;72.58;100772.94;1713787;81;20927;-74
2022/12/21 02:44:51;;;;;;;9.80;6.35;;;;;;;0.41;72.60;100769.05;1640959;86;22059;-74
2022/12/21 02:47:35;;;;;;;9.30;6.33;;;;;;;0.42;72.59;100766.84;1656172;85;21476;-73
2022/12/21 02:50:06;;;;;;;9.18;6.00;;;;;;;0.42;72.62;100768.14;1670627;83;21038;-73
2022/12/21 02:53:01;;;;;;;10.03;6.45;;;;;;;0.43;72.61;100775.48;1691833;82;21078;-73
2022/12/21 02:55:28;;;;;;;9.60;6.53;;;;;;;0.42;72.63;100775.94;1680711;84;20929;-73
2022/12/21 02:58:19;;;;;;;10.55;6.25;;;;;;;0.44;72.63;100774.14;1681663;83;21910;-73
2022/12/21 03:00:57;;;;;;;10.18;6.00;;;;;;;0.45;72.63;100775.83;1709225;83;20973;-73
2022/12/21 03:03:49;;;;;;;9.08;6.08;;;;;;;0.46;72.62;100772.78;1712378;82;21118;-72
2022/12/21 03:06:49;;;;;;;9.83;5.80;;;;;;;0.45;72.63;100770.64;1681316;82;21020;-72
2022/12/21 03:09:26;;;;;;;10.55;6.40;;;;;;;0.46;72.64;100768.44;1696049;83;21013;-72
2022/12/21 03:12:23;;;;;;;9.60;6.25;;;;;;;0.46;72.64;100764.53;1709533;83;22069;-73
2022/12/21 03:15:18;;;;;;;9.80;6.05;;;;;;;0.46;72.64;100761.09;1705728;83;21362;-73
2022/12/21 03:17:59;;;;;;;10.08;6.22;;;;;;;0.46;72.66;100774.93;1712561;82;20992;-73
2022/12/21 03:20:55;;;;;;;9.28;6.20;;;;;;;0.47;72.68;100773.18;1681390;83;21100;-70
2022/12/21 03:23:40;;;;;;;10.63;6.05;;;;;;;0.49;72.67;100783.95;1711710;83;21000;-70
2022/12/21 03:26:15;;;;;;;9.88;6.33;;;;;;;0.51;72.65;100782.15;1669478;83;21583;-72
2022/12/21 03:28:41;;;;;;;8.63;5.97;;;;;;;0.51;72.58;100781.30;1713211;83;21003;-73
2022/12/21 03:31:13;;;;;;;9.70;6.37;;;;;;;0.52;72.60;100776.05;1694148;83;21075;-70
2022/12/21 03:33:48;;;;;;;8.70;5.80;;;;;;;0.53;72.58;100773.84;1712552;83;20956;-76
2022/12/21 03:36:22;;;;;;;11.28;6.58;;;;;;;0.54;72.54;100770.34;1714601;82;21063;-71
2022/12/21 03:38:53;;;;;;;9.78;6.33;;;;;;;0.54;72.52;100759.10;1712965;83;21953;-72
2022/12/21 03:41:36;;;;;;;8.43;6.00;;;;;;;0.54;72.48;100765.60;1695173;83;20970;-71
2022/12/21 03:44:04;;;;;;;9.95;6.42;;;;;;;0.52;72.50;100761.75;1703407;83;21020;-71
2022/12/21 03:46:39;;;;;;;11.57;6.60;;;;;;;0.51;72.45;100747.06;1711859;83;21034;-71
2022/12/21 03:49:10;;;;;;;9.83;6.83;;;;;;;0.51;72.43;100746.22;1705387;83;21021;-71
2022/12/21 03:51:47;;;;;;;9.08;6.35;;;;;;;0.48;72.41;100748.47;1707077;83;21802;-72
2022/12/21 03:54:42;;;;;;;9.73;6.53;;;;;;;0.47;72.37;100751.94;1672717;83;21043;-71
2022/12/21 03:57:09;;;;;;;10.45;6.37;;;;;;;0.46;72.37;100750.70;1708504;82;21023;-72
2022/12/21 03:59:40;;;;;;;9.38;6.05;;;;;;;0.44;72.39;100752.50;1692947;84;21024;-71
2022/12/21 04:02:35;;;;;;;10.32;6.62;;;;;;;0.43;72.37;100754.70;1708200;84;20957;-72
2022/12/21 04:05:24;;;;;;;9.88;6.47;;;;;;;0.41;72.37;100761.25;1678812;84;21899;-72
2022/12/21 04:07:50;;;;;;;9.45;5.97;;;;;;;0.42;72.35;100766.84;1703119;82;21050;-72
2022/12/21 04:10:20;;;;;;;9.93;6.72;;;;;;;0.43;72.35;100764.64;1685241;84;20975;-72
2022/12/21 04:12:47;;;;;;;9.38;6.17;;;;;;;0.43;72.30;100752.95;1705444;83;21033;-74
2022/12/21 04:15:20;;;;;;;10.60;6.45;;;;;;;0.42;72.34;100757.75;1696502;83;21047;-72
2022/12/21 04:17:48;;;;;;;9.00;6.40;;;;;;;0.43;72.35;100759.45;1704432;82;21805;-72
2022/12/21 04:20:21;;;;;;;10.32;6.60;;;;;;;0.43;72.34;100762.05;1712614;83;21035;-72
2022/12/21 04:28:26;;;;;;;9.70;6.03;;;;;;;0.42;72.32;100743.45;1707334;84;20961;-72
2022/12/21 04:30:53;;;;;;;9.58;6.42;;;;;;;0.40;72.35;100747.86;1700418;83;21841;-72
2022/12/21 04:33:21;;;;;;;10.23;6.22;;;;;;;0.38;72.37;100744.44;1690574;83;21007;-71
2022/12/21 04:38:36;;;;;;;10.98;6.90;;;;;;;0.39;72.40;100739.66;1706828;82;21139;-71
2022/12/21 04:41:03;;;;;;;10.10;6.67;;;;;;;0.38;72.41;100748.33;1703829;83;22183;-72
2022/12/21 04:43:30;;;;;;;10.60;6.62;;;;;;;0.37;72.39;100738.84;1707513;84;21712;-72
2022/12/21 04:46:05;;;;;;;9.78;6.60;;;;;;;0.37;72.41;100733.64;1697673;84;21007;-72
2022/12/21 04:48:31;;;;;;;8.78;6.53;;;;;;;0.36;72.43;100733.25;1707817;82;21027;-72
2022/12/21 04:51:12;;;;;;;9.90;6.33;;;;;;;0.35;72.43;100735.45;1708948;83;21016;-72
2022/12/21 04:53:39;;;;;;;9.73;6.87;;;;;;;0.35;72.44;100738.05;1698618;83;20956;-73
2022/12/21 04:56:06;;;;;;;11.75;6.75;;;;;;;0.35;72.50;100741.95;1684594;84;22356;-73
2022/12/21 04:58:33;;;;;;;9.80;6.45;;;;;;;0.33;72.56;100741.14;1682575;83;21022;-73
2022/12/21 05:01:02;;;;;;;11.12;6.60;;;;;;;0.34;72.60;100748.04;1711795;83;21016;-74
2022/12/21 05:03:29;;;;;;;10.35;6.50;;;;;;;0.34;72.62;100746.74;1715113;82;20981;-74
2022/12/21 05:05:58;;;;;;;9.98;6.60;;;;;;;0.35;72.65;100744.99;1712682;82;20995;-74
2022/12/21 05:08:24;;;;;;;10.53;6.55;;;;;;;0.34;72.68;100749.34;1716964;82;21649;-73
2022/12/21 05:10:51;;;;;;;9.85;6.58;;;;;;;0.36;72.73;100750.59;1713561;83;21422;-72
2022/12/21 05:13:18;;;;;;;9.53;6.08;;;;;;;0.38;72.79;100757.88;1678191;84;21064;-71
2022/12/21 05:15:44;;;;;;;10.72;7.17;;;;;;;0.39;72.82;100760.91;1690522;84;21538;-72
2022/12/21 05:18:11;;;;;;;9.80;7.12;;;;;;;0.40;72.78;100751.76;1695619;83;21517;-72
2022/12/21 05:20:37;;;;;;;11.50;7.12;;;;;;;0.42;72.80;100766.84;1699176;83;21904;-73
2022/12/21 05:23:05;;;;;;;9.00;6.60;;;;;;;0.42;72.84;100756.45;1698935;83;21016;-71
2022/12/21 05:25:32;;;;;;;11.00;6.75;;;;;;;0.43;72.83;100746.91;1697510;84;21036;-72
2022/12/21 05:27:59;;;;;;;10.80;7.03;;;;;;;0.43;72.87;100744.30;1697252;83;20989;-72
2022/12/21 05:30:26;;;;;;;10.30;7.08;;;;;;;0.42;72.89;100747.36;1692405;84;21064;-72
2022/12/21 05:32:52;;;;;;;10.95;7.60;;;;;;;0.41;72.93;100745.66;1696738;84;21842;-72
2022/12/21 05:35:19;;;;;;;10.90;7.12;;;;;;;0.44;72.98;100753.80;1680100;83;21006;-72
2022/12/21 05:37:46;;;;;;;11.57;7.28;;;;;;;0.46;72.98;100757.19;1692181;83;21000;-73
2022/12/21 05:40:14;;;;;;;11.73;7.28;;;;;;;0.46;73.00;100752.00;1715689;82;21086;-72
2022/12/21 05:42:41;;;;;;;11.78;7.87;;;;;;;0.47;73.03;100748.49;1718871;81;21466;-73
2022/12/21 05:45:08;;;;;;;13.50;7.58;;;;;;;0.47;73.02;100745.44;1689722;83;21965;-73
2022/12/21 05:47:36;;;;;;;12.85;7.25;;;;;;;0.48;73.06;100748.89;1703191;82;21476;-73
2022/12/21 05:50:03;;;;;;;12.23;8.00;;;;;;;0.47;73.06;100744.59;1718876;81;21045;-73
2022/12/21 05:52:29;;;;;;;11.88;7.62;;;;;;;0.47;73.06;100750.64;1726362;82;21426;-72
2022/12/21 05:54:56;;;;;;;11.50;7.40;;;;;;;0.48;73.08;100755.39;1703307;82;21408;-73
2022/12/21 05:57:22;;;;;;;13.28;8.43;;;;;;;0.51;73.11;100764.41;1693914;82;22539;-73
2022/12/21 05:59:49;;;;;;;13.00;8.65;;;;;;;0.50;73.05;100758.36;1715765;83;21430;-72
2022/12/21 06:02:15;;;;;;;12.40;8.13;;;;;;;0.49;73.04;100766.22;1684171;83;21426;-72
2022/12/21 06:04:42;;;;;;;12.95;8.78;;;;;;;0.50;73.07;100757.52;1697381;83;21101;-74
2022/12/21 06:07:09;;;;;;;11.50;7.97;;;;;;;0.49;73.03;100762.31;1702097;82;21510;-71
2022/12/21 06:09:36;;;;;;;13.80;7.83;;;;;;;0.51;73.05;100751.41;1707825;82;21865;-71
2022/12/21 06:12:04;;;;;;;12.35;8.45;;;;;;;0.52;73.07;100753.11;1705660;84;21024;-71
2022/12/21 06:14:32;;;;;;;13.95;8.78;;;;;;;0.52;73.06;100754.41;1700940;83;21049;-71
2022/12/21 06:16:59;;;;;;;13.90;8.93;;;;;;;0.53;73.05;100753.51;1688317;84;21030;-71
2022/12/21 06:19:25;;;;;;;12.13;8.40;;;;;;;0.54;73.04;100743.51;1692601;83;20961;-71
2022/12/21 06:21:52;;;;;;;12.00;8.13;;;;;;;0.53;73.02;100747.86;1716604;82;21959;-72
2022/12/21 06:24:19;;;;;;;13.58;8.65;;;;;;;0.54;73.00;100756.50;1715862;83;21495;-72
2022/12/21 06:26:45;;;;;;;14.45;8.53;;;;;;;0.55;72.99;100751.25;1717037;82;21386;-72
2022/12/21 06:29:12;;;;;;;13.32;9.03;;;;;;;0.57;73.01;100755.94;1706953;82;21575;-71
2022/12/21 06:31:39;;;;;;;12.43;8.60;;;;;;;0.60;73.01;100755.47;1711546;82;21043;-71
2022/12/21 06:34:05;;;;;;;12.28;8.00;;;;;;;0.60;72.99;100758.07;1713784;81;21896;-72
2022/12/21 06:36:32;;;;;;;12.78;7.70;;;;;;;0.60;72.97;100746.38;1734403;82;21011;-71
2022/12/21 06:38:59;;;;;;;11.18;7.30;;;;;;;0.59;72.97;100748.13;1721742;83;21083;-71
2022/12/21 06:41:25;;;;;;;12.85;8.40;;;;;;;0.57;72.97;100753.34;1726234;83;21008;-71
2022/12/21 06:43:51;;;;;;;12.13;8.68;;;;;;;0.57;73.00;100753.34;1738778;81;21019;-70
2022/12/21 06:46:18;;;;;;;13.43;8.90;;;;;;;0.62;73.01;100754.97;1726133;81;21900;-71
2022/12/21 06:48:47;;;;;;;12.33;8.53;;;;;;;0.63;72.99;100744.52;1692696;83;21003;-71
2022/12/21 06:51:19;;;;;;;14.05;8.18;;;;;;;0.64;72.90;100746.66;1720942;81;21013;-71
2022/12/21 06:53:47;;;;;;;13.43;9.35;;;;;;;0.65;72.90;100745.30;1714218;81;21322;-71
2022/12/21 06:56:26;;;;;;;14.00;9.25;;;;;;;0.66;72.81;100740.95;1721182;82;21034;-71
2022/12/21 06:58:54;;;;;;;13.72;9.20;;;;;;;0.63;72.76;100732.81;1642387;84;21966;-71
2022/12/21 07:01:31;;;;;;;12.20;8.98;;;;;;;0.65;72.79;100733.61;1696679;83;21041;-71
2022/12/21 07:03:58;;;;;;;11.20;8.50;;;;;;;0.65;72.69;100732.31;1681093;83;21541;-71
2022/12/21 07:06:31;;;;;;;13.60;8.80;;;;;;;0.68;72.69;100724.88;1689736;83;20971;-70
2022/12/21 07:08:58;;;;;;;11.63;7.75;;;;;;;0.67;72.63;100718.80;1658651;85;21511;-72
2022/12/21 07:11:27;;;;;;;13.50;8.48;;;;;;;0.70;72.57;100720.47;1684492;84;21830;-71
2022/12/21 07:13:53;;;;;;;12.05;8.23;;;;;;;0.73;72.60;100714.71;1643714;85;21034;-71
2022/12/21 07:16:21;;;;;;;12.18;7.97;;;;;;;0.77;72.61;100723.25;1690598;83;20958;-71
2022/12/21 07:18:47;;;;;;;10.80;8.13;;;;;;;0.79;72.47;100726.67;1682222;83;21007;-71
2022/12/21 07:21:16;;;;;;;20.68;8.05;;;;;;;0.80;72.32;100730.97;1682992;83;21116;-72
2022/12/21 07:23:43;;;;;;;11.38;7.75;;;;;;;0.82;72.19;100736.95;1637174;83;22013;-71
2022/12/21 07:26:21;;;;;;;12.23;7.80;;;;;;;0.83;72.09;100742.10;1672610;83;21013;-71
2022/12/21 07:28:48;;;;;;;11.68;8.10;;;;;;;0.82;71.93;100741.70;1689604;83;21038;-71
2022/12/21 07:31:22;;;;;;;13.48;8.45;;;;;;;0.82;71.86;100742.16;1694475;83;21003;-70
2022/12/21 07:33:49;;;;;;;11.65;8.33;;;;;;;0.82;71.84;100744.30;1717371;82;20980;-73
2022/12/21 07:36:16;;;;;;;17.35;12.53;;;;;;;0.84;71.86;100740.34;1705549;82;21888;-70
2022/12/21 07:38:42;;;;;;;14.13;9.35;;;;;;;0.86;71.86;100746.34;1702321;84;21047;-72
2022/12/21 07:41:12;;;;;;;13.08;9.03;;;;;;;0.85;71.92;100744.20;1710105;83;21474;-70
2022/12/21 07:43:39;;;;;;;11.88;8.23;;;;;;;0.87;71.92;100748.06;1713178;82;21000;-73
2022/12/21 07:46:24;;;;;;;12.95;8.88;;;;;;;0.89;71.96;100751.46;1712459;82;21075;-74
2022/12/21 07:48:52;;;;;;;14.95;9.45;;;;;;;0.95;72.00;100753.84;1711274;83;22652;-69
2022/12/21 07:51:20;;;;;;;15.45;9.85;;;;;;;1.01;72.13;100749.73;1709828;82;21054;-69
2022/12/21 07:53:46;;;;;;;15.95;9.20;;;;;;;1.07;71.96;100750.84;1712507;82;21052;-68
2022/12/21 07:56:17;;;;;;;15.70;9.98;;;;;;;1.10;71.74;100758.53;1679830;83;21035;-70
2022/12/21 07:58:43;;;;;;;12.63;9.05;;;;;;;1.12;71.67;100757.17;1709361;83;21062;-69
2022/12/21 08:01:12;;;;;;;14.40;8.78;;;;;;;1.15;71.72;100764.41;1709530;83;22074;-71
2022/12/21 08:03:42;;;;;;;14.43;8.85;;;;;;;1.20;71.67;100755.16;1677881;83;21285;-70
2022/12/21 08:06:09;;;;;;;12.33;8.20;;;;;;;1.21;71.32;100752.11;1704534;82;21058;-70
2022/12/21 08:08:37;;;;;;;12.58;8.93;;;;;;;1.19;71.28;100748.27;1709746;82;21019;-70
2022/12/21 08:11:10;;;;;;;16.15;10.10;;;;;;;1.20;71.22;100745.20;1709501;82;21047;-71
2022/12/21 08:13:37;;;;;;;15.35;10.38;;;;;;;1.23;71.21;100747.23;1705751;82;22488;-70
2022/12/21 08:16:05;;;;;;;13.90;8.90;;;;;;;1.28;71.23;100737.98;1713202;83;21510;-71
2022/12/21 08:18:32;;;;;;;15.03;10.10;;;;;;;1.34;71.23;100733.84;1690184;83;21012;-71
2022/12/21 08:20:59;;;;;;;14.03;9.60;;;;;;;1.37;71.02;100732.00;1692845;83;22223;-69
2022/12/21 08:23:25;;;;;;;12.73;9.43;;;;;;;1.41;70.89;100725.77;1700696;82;21039;-69
2022/12/21 08:25:52;;;;;;;13.55;9.75;;;;;;;1.46;70.70;100718.27;1697397;82;21957;-69
2022/12/21 08:28:18;;;;;;;12.55;8.35;;;;;;;1.54;70.82;100716.20;1712560;82;21051;-72
2022/12/21 08:30:46;;;;;;;12.82;9.00;;;;;;;1.67;70.70;100722.22;1706208;83;21121;-71
2022/12/21 08:33:13;;;;;;;12.98;9.23;;;;;;;1.76;70.38;100721.03;1685083;83;21129;-69
2022/12/21 08:35:43;;;;;;;15.03;9.58;;;;;;;1.80;70.00;100711.34;1705367;82;21066;-69
2022/12/21 08:38:10;;;;;;;13.70;9.68;;;;;;;1.84;69.71;100712.48;1696258;82;21680;-67
2022/12/21 08:40:37;;;;;;;16.02;10.00;;;;;;;1.90;69.71;100720.50;1684247;82;21098;-69
2022/12/21 08:43:03;;;;;;;13.72;9.53;;;;;;;1.97;69.65;100716.31;1711329;81;21665;-69
2022/12/21 08:45:33;;;;;;;14.93;10.08;;;;;;;2.08;69.65;100718.95;1678338;83;21470;-69
2022/12/21 08:48:00;;;;;;;16.93;10.08;;;;;;;2.17;69.35;100717.29;1706188;82;21050;-70
2022/12/21 08:50:27;;;;;;;15.43;10.08;;;;;;;2.24;69.20;100716.99;1712086;82;21835;-73
2022/12/21 08:52:54;;;;;;;19.85;11.53;;;;;;;2.29;68.97;100725.46;1689874;83;21082;-71
2022/12/21 08:55:21;;;;;;;28.80;14.80;;;;;;;2.33;68.86;100721.45;1661832;83;21088;-70
2022/12/21 08:57:48;;;;;;;14.28;10.32;;;;;;;2.37;68.50;100721.71;1709871;83;21039;-68
2022/12/21 09:00:15;;;;;;;15.15;9.40;;;;;;;2.38;68.19;100719.03;1714543;82;21071;-68
2022/12/21 09:02:41;;;;;;;13.70;9.50;;;;;;;2.42;68.04;100721.94;1720071;82;21902;-70
2022/12/21 09:05:08;;;;;;;14.30;9.45;;;;;;;2.43;67.85;100729.30;1716677;82;21479;-71
2022/12/21 09:07:35;;;;;;;13.60;9.40;;;;;;;2.49;67.82;100727.73;1716388;82;21070;-75
2022/12/21 09:10:02;;;;;;;14.10;10.00;;;;;;;2.54;67.55;100727.95;1720092;82;21038;-70
2022/12/21 09:12:29;;;;;;;14.45;9.13;;;;;;;2.59;67.45;100727.29;1719375;81;21484;-72
2022/12/21 09:14:56;;;;;;;14.00;9.80;;;;;;;2.68;67.43;100731.73;1720629;82;22819;-72
2022/12/21 09:17:23;;;;;;;16.48;10.55;;;;;;;2.82;67.56;100732.88;1712428;83;21493;-71
2022/12/21 09:19:50;;;;;;;14.70;10.03;;;;;;;2.95;67.19;100733.20;1705666;82;21054;-70
2022/12/21 09:22:16;;;;;;;14.23;9.30;;;;;;;3.01;66.70;100729.50;1708586;82;21090;-73
2022/12/21 09:24:44;;;;;;;14.50;10.08;;;;;;;3.03;66.45;100724.60;1705184;82;21072;-74
2022/12/21 09:27:10;;;;;;;12.65;8.88;;;;;;;3.07;66.18;100726.61;1720538;82;21891;-72
2022/12/21 09:29:37;;;;;;;14.38;9.25;;;;;;;3.11;65.98;100721.67;1717701;81;21076;-74
2022/12/21 09:32:04;;;;;;;12.60;9.05;;;;;;;3.14;65.68;100726.75;1706013;83;21088;-71
2022/12/21 09:34:31;;;;;;;14.13;9.53;;;;;;;3.14;65.58;100726.75;1702423;82;21130;-74
2022/12/21 09:36:59;;;;;;;14.33;10.00;;;;;;;3.14;65.52;100718.92;1714058;83;20952;-74
2022/12/21 09:39:25;;;;;;;18.00;10.23;;;;;;;3.13;65.40;100712.85;1713139;83;22546;-73
2022/12/21 09:42:31;;;;;;;15.55;9.78;;;;;;;3.16;65.31;100714.47;1713492;83;21042;-72
2022/12/21 09:45:19;;;;;;;15.93;10.60;;;;;;;3.15;65.14;100714.09;1694936;82;20959;-72
2022/12/21 09:47:57;;;;;;;15.43;9.50;;;;;;;3.22;65.05;100711.61;1709403;82;21016;-74
2022/12/21 09:50:27;;;;;;;15.72;10.40;;;;;;;3.33;64.89;100706.76;1712023;82;21056;-72
2022/12/21 09:53:11;;;;;;;14.75;10.38;;;;;;;3.43;64.78;100705.89;1713240;82;21918;-73
2022/12/21 09:55:36;;;;;;;18.07;10.60;;;;;;;3.55;64.73;100703.19;1714352;83;21028;-71
2022/12/21 09:58:06;;;;;;;15.32;10.32;;;;;;;3.71;64.63;100698.51;1686432;83;21161;-70
2022/12/21 10:00:34;;;;;;;14.05;9.85;;;;;;;3.87;64.70;100694.73;1659033;83;21085;-70
2022/12/21 10:03:17;;;;;;;15.25;10.65;;;;;;;4.03;64.33;100689.16;1692468;83;21491;-70
2022/12/21 10:06:07;;;;;;;16.95;10.75;;;;;;;4.06;63.64;100688.66;1682646;83;21989;-71
2022/12/21 10:09:13;;;;;;;15.83;10.48;;;;;;;4.07;63.43;100687.73;1700353;84;21493;-72
2022/12/21 10:12:09;;;;;;;19.27;11.95;;;;;;;4.05;63.39;100676.47;1675242;84;21582;-71
2022/12/21 10:15:05;;;;;;;17.48;11.35;;;;;;;4.03;63.18;100675.25;1685433;84;21525;-69
2022/12/21 10:18:09;;;;;;;16.37;11.73;;;;;;;3.96;62.96;100669.48;1707002;84;21060;-73
2022/12/21 10:20:54;;;;;;;;;;;;;;;3.87;63.11;100660.77;1708035;82;23881;-72
2022/12/21 10:23:26;;;;;;;;;;;;;;;3.86;63.14;100658.20;1682993;83;20175;-72
2022/12/21 10:25:58;;;;;;;16.67;11.33;;;;;;;3.86;63.12;100664.30;1667817;85;20793;-71
2022/12/21 10:28:48;;;;;;;21.48;12.73;;;;;;;3.85;63.24;100665.66;1680741;85;21339;-73
2022/12/21 10:31:38;;;;;;;18.57;11.95;;;;;;;3.78;63.04;100660.36;1680432;83;21103;-71
2022/12/21 10:34:21;;;;;;;18.50;11.65;;;;;;;3.72;63.27;100654.48;1675551;84;21855;-72
2022/12/21 10:36:48;;;;;;;19.70;12.90;;;;;;;3.69;63.25;100655.09;1671352;85;21035;-74
2022/12/21 10:39:16;;;;;;;17.15;12.60;;;;;;;3.64;63.34;100651.38;1701725;83;21071;-76
2022/12/21 10:41:46;;;;;;;18.23;12.68;;;;;;;3.58;63.35;100645.61;1703596;82;21105;-71
2022/12/21 10:44:12;;;;;;;22.17;13.20;;;;;;;3.51;63.35;100647.64;1732414;82;20996;-71
2022/12/21 10:46:40;;;;;;;22.00;15.30;;;;;;;3.47;63.46;100647.37;1715647;83;21028;-70
2022/12/21 10:49:19;;;;;;;16.82;11.68;;;;;;;3.47;63.61;100649.14;1715414;83;21095;-70
2022/12/21 10:51:45;;;;;;;19.27;12.90;;;;;;;3.44;63.58;100643.16;1681892;85;21136;-73
2022/12/21 10:54:12;;;;;;;17.12;13.03;;;;;;;3.41;63.69;100645.91;1666059;83;21081;-73
2022/12/21 10:56:47;;;;;;;17.95;11.78;;;;;;;3.41;63.89;100648.98;1682842;83;21028;-73
2022/12/21 10:59:30;;;;;;;19.12;12.33;;;;;;;3.42;64.08;100645.45;1683284;83;21481;-72
2022/12/21 11:01:57;;;;;;;16.90;12.13;;;;;;;3.42;64.01;100638.92;1681659;84;21034;-73
2022/12/21 11:04:27;;;;;;;19.10;12.03;;;;;;;3.39;64.05;100638.61;1679974;84;21069;-69
2022/12/21 11:07:05;;;;;;;18.05;11.95;;;;;;;3.38;64.08;100631.70;1683578;85;21002;-71
2022/12/21 11:09:39;;;;;;;15.18;11.43;;;;;;;3.37;64.03;100628.67;1648218;85;21076;-71
2022/12/21 11:12:21;;;;;;;19.55;12.60;;;;;;;3.37;64.07;100631.74;1709170;83;22929;-72
2022/12/21 11:14:50;;;;;;;18.10;12.25;;;;;;;3.36;64.17;100626.13;1711158;83;20971;-71
2022/12/21 11:17:29;;;;;;;18.57;12.60;;;;;;;3.38;64.02;100630.39;1713462;83;21056;-70
2022/12/21 11:20:08;;;;;;;19.20;12.85;;;;;;;3.37;63.90;100635.66;1692855;83;22122;-71
2022/12/21 11:22:34;;;;;;;16.17;11.43;;;;;;;3.35;63.84;100622.68;1702051;82;21494;-72
2022/12/21 11:25:02;;;;;;;18.23;12.03;;;;;;;3.35;63.85;100616.61;1663187;85;22539;-73
2022/12/21 11:27:33;;;;;;;19.37;12.10;;;;;;;3.35;63.86;100617.92;1699763;82;21070;-71
2022/12/21 11:30:20;;;;;;;17.95;12.23;;;;;;;3.34;63.75;100611.85;1713776;83;21493;-73
2022/12/21 11:32:47;;;;;;;18.75;12.55;;;;;;;3.32;63.71;100610.23;1690968;83;21590;-71
2022/12/21 11:35:23;;;;;;;17.10;11.60;;;;;;;3.32;63.88;100605.86;1692151;83;21890;-70
2022/12/21 11:37:57;;;;;;;19.65;13.45;;;;;;;3.32;63.97;100607.16;1713291;83;22539;-71
2022/12/21 11:40:26;;;;;;;20.37;12.95;;;;;;;3.32;64.14;100603.25;1709773;82;21055;-69
2022/12/21 11:43:04;;;;;;;24.47;14.78;;;;;;;3.34;64.30;100602.72;1687873;83;21141;-70
2022/12/21 11:45:55;;;;;;;24.23;15.43;;;;;;;3.35;64.46;100600.48;1695059;82;21059;-72
2022/12/21 11:48:36;;;;;;;22.60;14.50;;;;;;;3.42;64.63;100594.53;1710002;83;21136;-71
2022/12/21 11:51:23;;;;;;;24.95;15.88;;;;;;;3.48;64.68;100601.25;1709900;83;21854;-71
2022/12/21 11:54:22;;;;;;;25.23;16.20;;;;;;;3.52;64.51;100597.56;1713132;82;21046;-71
2022/12/21 11:56:56;;;;;;;22.98;14.73;;;;;;;3.55;64.48;100600.02;1711593;82;21060;-73
2022/12/21 11:59:34;;;;;;;25.48;15.00;;;;;;;3.61;64.59;100599.29;1709311;83;21019;-70
2022/12/21 12:02:21;;;;;;;22.70;15.13;;;;;;;3.62;64.36;100602.28;1687608;83;21067;-71
2022/12/21 12:05:03;;;;;;;22.40;14.70;;;;;;;3.62;64.21;100601.44;1676656;82;21870;-71
2022/12/21 12:08:10;;;;;;;23.02;14.75;;;;;;;3.63;64.07;100609.66;1668535;85;21358;-72